Delta Virtual Airport Information Service

Seattle Tacoma International Airport

ICAO: KSEA Country: United States
Latitude: 47.4482 Longitude: -122.311
Latest Arrival : ASA100 (1) (PANC-KSEA) Latest Departure : DAL1744 (1) (KSEA-KSAN)


WX CaptureLIVE
Data provided by noaa.gov | Fetched at 23:01:33

METAR : KSEA 250353Z 23004KT 10SM OVC075 19/09 A3011 RMK AO2 SLP200 T01890089

TAF : KSEA 250300Z 2503/2606 18004KT P6SM FEW045 BKN080 FM250700 20005KT P6SM OVC050 FM251100 17007KT P6SM -RA OVC025 FM251500 18005KT 5SM RA BR OVC015 FM260100 21007KT P6SM -SHRA OVC025


Runway Data for KSEA
Data provided by openaviationdata.com

Runway ID Mag Var Hdg Length Elevation Surface ILS Freq ILS Id ILS Slope
16L 19 161° 11894 ft 362 ft Asphalt 110.3 ISNQ 3
16R 19 161° 9421 ft 362 ft Concrete 111.7 ISZI 3
34L 19 341° 9421 ft 362 ft Concrete 111.7 ITUC 3
34R 19 341° 11894 ft 362 ft Asphalt 110.3 ISEA 2

Seattle Tacoma International Airport, United States
Use only for reference purposes



Not for navigational purposes.